createdAt,value
2023-09-16T00:00:45.406Z,97.90
2023-09-16T00:03:12.191Z,97.90
2023-09-16T00:05:40.324Z,97.70
2023-09-16T00:08:07.571Z,97.80
2023-09-16T00:10:35.569Z,97.80
2023-09-16T00:13:02.380Z,97.90
2023-09-16T00:15:29.202Z,97.80
2023-09-16T00:17:56.235Z,97.80
2023-09-16T00:20:26.273Z,97.70
2023-09-16T00:22:53.153Z,97.60
2023-09-16T00:25:20.681Z,97.70
2023-09-16T00:27:47.456Z,97.70
2023-09-16T00:30:15.443Z,97.70
2023-09-16T00:32:42.276Z,97.60
2023-09-16T00:35:09.574Z,97.60
2023-09-16T00:37:36.369Z,97.60
2023-09-16T00:40:04.459Z,97.60
2023-09-16T00:42:31.282Z,97.50
2023-09-16T00:44:58.028Z,97.60
2023-09-16T00:47:24.687Z,97.60
2023-09-16T00:49:51.470Z,97.60
2023-09-16T00:52:18.253Z,97.60
2023-09-16T00:54:45.188Z,97.60
2023-09-16T00:57:14.489Z,97.40
2023-09-16T00:59:41.551Z,97.50
2023-09-16T01:02:10.464Z,97.60
2023-09-16T01:04:40.358Z,97.60
2023-09-16T01:07:07.180Z,97.60
2023-09-16T01:09:33.997Z,97.50
2023-09-16T01:12:00.761Z,97.60
2023-09-16T01:14:27.947Z,97.50
2023-09-16T01:17:04.017Z,97.60
2023-09-16T01:19:52.045Z,97.60
2023-09-16T01:22:19.147Z,97.50
2023-09-16T01:24:55.456Z,97.60
2023-09-16T01:27:22.580Z,97.60
2023-09-16T01:29:51.594Z,97.50
2023-09-16T01:32:22.941Z,97.50
2023-09-16T01:34:53.782Z,97.60
2023-09-16T01:37:23.601Z,97.50
2023-09-16T01:39:57.068Z,97.50
2023-09-16T01:42:25.606Z,97.50
2023-09-16T01:44:55.736Z,97.60
2023-09-16T01:47:22.766Z,97.50
2023-09-16T01:49:49.479Z,97.40
2023-09-16T01:52:17.586Z,97.50
2023-09-16T01:54:44.290Z,97.50
2023-09-16T01:57:10.971Z,97.50
2023-09-16T01:59:37.659Z,97.40
2023-09-16T02:02:04.412Z,97.40
2023-09-16T02:04:31.262Z,97.40
2023-09-16T02:06:58.162Z,97.40
2023-09-16T02:09:24.912Z,97.40
2023-09-16T02:11:51.657Z,97.40
2023-09-16T02:14:19.919Z,97.40
2023-09-16T02:16:46.977Z,97.40
2023-09-16T02:19:14.474Z,97.40
2023-09-16T02:21:41.213Z,97.40
2023-09-16T02:24:08.080Z,97.40
2023-09-16T02:26:34.770Z,97.40
2023-09-16T02:29:01.524Z,97.40
2023-09-16T02:31:28.345Z,97.40
2023-09-16T02:33:58.772Z,97.40
2023-09-16T02:36:27.171Z,97.50
2023-09-16T02:38:53.831Z,97.50
2023-09-16T02:41:20.659Z,97.50
2023-09-16T02:43:50.370Z,97.40
2023-09-16T02:46:17.156Z,97.50
2023-09-16T02:48:43.913Z,97.40
2023-09-16T02:51:10.926Z,97.60
2023-09-16T02:53:38.682Z,97.50
2023-09-16T02:56:05.497Z,97.50
2023-09-16T02:58:32.293Z,97.60
2023-09-16T03:00:59.175Z,97.50
2023-09-16T03:03:26.080Z,97.50
2023-09-16T03:05:52.784Z,97.50
2023-09-16T03:08:21.426Z,97.50
2023-09-16T03:10:48.163Z,97.40
2023-09-16T03:13:14.858Z,97.50
2023-09-16T03:15:47.203Z,97.50
2023-09-16T03:18:14.436Z,97.50
2023-09-16T03:20:41.115Z,97.50
2023-09-16T03:23:07.807Z,97.60
2023-09-16T03:25:34.478Z,97.40
2023-09-16T03:28:03.018Z,97.50
2023-09-16T03:30:29.939Z,97.40
2023-09-16T03:32:56.754Z,97.40
2023-09-16T03:35:25.819Z,97.40
2023-09-16T03:37:52.578Z,97.40
2023-09-16T03:40:19.240Z,97.50
2023-09-16T03:42:45.941Z,97.40
2023-09-16T03:45:27.077Z,97.50
2023-09-16T03:47:55.631Z,97.40
2023-09-16T03:50:22.566Z,97.50
2023-09-16T03:52:50.198Z,97.50
2023-09-16T03:55:17.067Z,97.60
2023-09-16T03:57:43.777Z,97.40
2023-09-16T04:00:12.063Z,97.50
2023-09-16T04:02:41.974Z,97.40
2023-09-16T04:05:08.816Z,97.50
2023-09-16T04:07:35.681Z,97.50
2023-09-16T04:10:02.910Z,97.60
2023-09-16T04:12:29.803Z,97.40
2023-09-16T04:14:56.475Z,97.60
2023-09-16T04:17:23.137Z,97.60
2023-09-16T04:19:49.948Z,97.50
2023-09-16T04:22:16.704Z,97.60
2023-09-16T04:24:43.483Z,97.50
2023-09-16T04:27:10.180Z,97.50
2023-09-16T04:29:37.130Z,97.60
2023-09-16T04:32:04.404Z,97.60
2023-09-16T04:34:33.663Z,97.60
2023-09-16T04:37:00.988Z,97.70
2023-09-16T04:39:28.216Z,97.60
2023-09-16T04:41:54.928Z,97.60
2023-09-16T04:44:22.455Z,97.60
2023-09-16T04:46:49.387Z,97.60
2023-09-16T04:49:16.148Z,97.60
2023-09-16T04:51:42.935Z,97.50
2023-09-16T04:54:09.715Z,97.60
2023-09-16T04:56:37.176Z,97.50
2023-09-16T04:59:04.762Z,97.50
2023-09-16T05:01:31.895Z,97.50
2023-09-16T05:03:59.626Z,97.40
2023-09-16T05:06:26.719Z,97.50
2023-09-16T05:08:56.428Z,97.50
2023-09-16T05:11:23.123Z,97.40
2023-09-16T05:13:52.270Z,97.50
2023-09-16T05:16:18.998Z,97.50
2023-09-16T05:18:46.494Z,97.50
2023-09-16T05:21:13.324Z,97.50
2023-09-16T05:23:39.988Z,97.50
2023-09-16T05:26:06.935Z,97.40
2023-09-16T05:28:33.743Z,97.40
2023-09-16T05:31:01.950Z,97.40
2023-09-16T05:33:28.679Z,97.50
2023-09-16T05:35:55.460Z,97.50
2023-09-16T05:38:22.200Z,97.60
2023-09-16T05:40:48.911Z,97.50
2023-09-16T05:43:15.647Z,97.50
2023-09-16T05:45:42.920Z,97.40
2023-09-16T05:48:09.926Z,97.50
2023-09-16T05:50:36.617Z,97.50
2023-09-16T05:53:04.785Z,97.50
2023-09-16T05:55:31.542Z,97.40
2023-09-16T05:57:58.258Z,97.50
2023-09-16T06:00:25.019Z,97.40
2023-09-16T06:02:53.013Z,97.50
2023-09-16T06:05:19.809Z,97.40
2023-09-16T06:07:46.647Z,97.40
2023-09-16T06:10:13.686Z,97.50
2023-09-16T06:12:40.645Z,97.50
2023-09-16T06:15:08.823Z,97.50
2023-09-16T06:17:35.507Z,97.50
2023-09-16T06:20:02.188Z,97.50
2023-09-16T06:22:28.937Z,97.50
2023-09-16T06:24:55.727Z,97.50
2023-09-16T06:27:23.190Z,97.50
2023-09-16T06:29:51.881Z,97.40
2023-09-16T06:32:20.039Z,97.50
2023-09-16T06:34:46.907Z,97.50
2023-09-16T06:37:13.614Z,97.50
2023-09-16T06:39:41.339Z,97.50
2023-09-16T06:42:08.118Z,97.40
2023-09-16T06:44:34.822Z,97.50
2023-09-16T06:47:01.570Z,97.50
2023-09-16T06:49:28.231Z,97.50
2023-09-16T06:51:55.036Z,97.40
2023-09-16T06:54:21.714Z,97.50
2023-09-16T06:56:48.443Z,97.50
2023-09-16T06:59:15.155Z,97.50
2023-09-16T07:01:41.896Z,97.60
2023-09-16T07:04:08.664Z,97.60
2023-09-16T07:06:35.585Z,97.50
2023-09-16T07:09:02.274Z,97.50
2023-09-16T07:11:28.935Z,97.70
2023-09-16T07:13:55.649Z,97.70
2023-09-16T07:16:22.520Z,97.70
2023-09-16T07:18:49.475Z,97.60
2023-09-16T07:21:16.862Z,97.80
2023-09-16T07:23:43.602Z,97.70
2023-09-16T07:26:10.381Z,97.70
2023-09-16T07:28:37.110Z,97.70
2023-09-16T07:31:04.039Z,97.70
2023-09-16T07:33:30.957Z,98.20
2023-09-16T07:35:57.646Z,98.60
2023-09-16T07:38:24.580Z,98.60
2023-09-16T07:40:54.487Z,98.60
2023-09-16T07:43:21.562Z,98.60
2023-09-16T07:45:48.454Z,98.50
2023-09-16T07:48:15.805Z,98.30
2023-09-16T07:50:42.589Z,98.30
2023-09-16T07:53:09.402Z,98.20
2023-09-16T07:55:36.148Z,98.10
2023-09-16T07:58:02.950Z,98.00
2023-09-16T08:00:30.140Z,98.00
2023-09-16T08:02:57.207Z,98.10
2023-09-16T08:05:24.127Z,98.10
2023-09-16T08:07:50.923Z,98.00
2023-09-16T08:10:17.763Z,98.00
2023-09-16T08:12:44.658Z,98.00
2023-09-16T08:15:11.494Z,98.00
2023-09-16T08:17:41.032Z,98.10
2023-09-16T08:20:09.081Z,98.00
2023-09-16T08:22:36.108Z,98.10
2023-09-16T08:25:06.724Z,98.00
2023-09-16T08:27:33.486Z,98.00
2023-09-16T08:30:00.149Z,98.00
2023-09-16T08:32:29.805Z,98.00
2023-09-16T08:34:57.469Z,98.00
2023-09-16T08:37:24.579Z,97.90
2023-09-16T08:39:51.341Z,97.90
2023-09-16T08:42:18.023Z,97.90
2023-09-16T08:44:46.855Z,97.90
2023-09-16T08:47:28.334Z,97.90
2023-09-16T08:50:03.062Z,97.90
2023-09-16T08:52:49.810Z,97.90
2023-09-16T08:55:17.325Z,97.90
2023-09-16T08:57:50.451Z,97.90
2023-09-16T09:00:17.922Z,97.90
2023-09-16T09:02:46.088Z,97.80
2023-09-16T09:05:14.459Z,97.90
2023-09-16T09:07:42.922Z,97.90
2023-09-16T09:10:13.634Z,98.60
2023-09-16T09:12:42.908Z,99.00
2023-09-16T09:15:14.622Z,99.40
2023-09-16T09:17:46.085Z,99.80
2023-09-16T09:20:14.954Z,99.90
2023-09-16T09:22:42.980Z,99.90
2023-09-16T09:25:09.956Z,99.90
2023-09-16T09:27:36.648Z,99.90
2023-09-16T09:30:05.380Z,99.90
2023-09-16T09:32:33.399Z,99.90
2023-09-16T09:35:06.527Z,99.90
2023-09-16T09:37:33.887Z,99.90
2023-09-16T09:40:13.968Z,99.90
2023-09-16T09:42:46.342Z,99.90
2023-09-16T09:45:14.394Z,99.90
2023-09-16T09:47:42.283Z,99.90
2023-09-16T09:50:17.577Z,99.90
2023-09-16T09:52:48.936Z,99.90
2023-09-16T09:55:33.959Z,99.90
2023-09-16T09:58:01.320Z,99.90
2023-09-16T10:00:29.171Z,99.90
2023-09-16T10:02:56.152Z,99.90
2023-09-16T10:05:24.216Z,99.90
2023-09-16T10:07:52.620Z,99.90
2023-09-16T10:10:26.570Z,99.90
2023-09-16T10:12:55.347Z,99.90
2023-09-16T10:15:26.924Z,99.90
2023-09-16T10:17:54.048Z,99.90
2023-09-16T10:20:22.250Z,99.90
2023-09-16T10:22:49.498Z,99.90
2023-09-16T10:25:18.487Z,99.90
2023-09-16T10:27:58.782Z,99.90
2023-09-16T10:30:31.356Z,99.90
2023-09-16T10:33:03.056Z,99.90
2023-09-16T10:35:30.140Z,99.90
2023-09-16T10:38:00.292Z,99.90
2023-09-16T10:40:27.761Z,99.90
2023-09-16T10:42:55.291Z,99.90
2023-09-16T10:45:22.711Z,99.90
2023-09-16T10:47:51.129Z,99.90
2023-09-16T10:50:19.089Z,99.90
2023-09-16T10:53:11.370Z,99.90
2023-09-16T10:56:06.433Z,99.90
2023-09-16T10:58:43.293Z,99.90
2023-09-16T11:01:12.839Z,99.90
2023-09-16T11:03:47.052Z,99.90
2023-09-16T11:06:13.911Z,99.90
2023-09-16T11:08:40.965Z,99.90
2023-09-16T11:11:08.269Z,99.90
2023-09-16T11:13:35.323Z,99.90
2023-09-16T11:16:02.396Z,99.90
2023-09-16T11:18:30.785Z,99.90
2023-09-16T11:20:57.800Z,99.90
2023-09-16T11:23:25.313Z,99.90
2023-09-16T11:25:51.992Z,99.90
2023-09-16T11:28:19.862Z,99.90
2023-09-16T11:30:57.328Z,99.90
2023-09-16T11:33:29.644Z,99.90
2023-09-16T11:36:18.363Z,99.90
2023-09-16T11:38:56.504Z,99.90
2023-09-16T11:41:23.234Z,99.90
2023-09-16T11:43:50.200Z,99.90
2023-09-16T11:46:17.068Z,99.90
2023-09-16T11:48:54.382Z,99.90
2023-09-16T11:51:23.019Z,99.90
2023-09-16T11:53:51.330Z,99.90
2023-09-16T11:56:19.612Z,99.90
2023-09-16T11:58:47.696Z,99.90
2023-09-16T12:01:20.380Z,99.90
2023-09-16T12:03:49.266Z,99.90
2023-09-16T12:06:18.500Z,99.90
2023-09-16T12:08:46.506Z,99.90
2023-09-16T12:11:13.349Z,99.90
2023-09-16T12:13:43.273Z,99.90
2023-09-16T12:16:12.835Z,99.90
2023-09-16T12:18:39.639Z,99.90
2023-09-16T12:21:06.869Z,99.90
2023-09-16T12:23:33.616Z,99.90
2023-09-16T12:26:00.287Z,99.90
2023-09-16T12:28:28.291Z,99.90
2023-09-16T12:30:57.305Z,99.90
2023-09-16T12:33:37.468Z,99.90
2023-09-16T12:36:04.922Z,99.90
2023-09-16T12:38:35.889Z,99.90
2023-09-16T12:41:03.869Z,99.90
2023-09-16T12:43:32.131Z,99.90
2023-09-16T12:46:02.977Z,99.90
2023-09-16T12:48:30.197Z,99.90
2023-09-16T12:50:57.458Z,99.90
2023-09-16T12:53:27.727Z,99.90
2023-09-16T12:55:55.193Z,99.90
2023-09-16T12:58:25.348Z,99.90
2023-09-16T13:00:52.913Z,99.90
2023-09-16T13:03:22.074Z,99.90
2023-09-16T13:05:53.619Z,99.90
2023-09-16T13:08:21.213Z,99.90
2023-09-16T13:10:51.822Z,99.90
2023-09-16T13:13:18.693Z,99.90
2023-09-16T13:15:46.824Z,99.90
2023-09-16T13:18:14.446Z,99.90
2023-09-16T13:20:41.518Z,99.90
2023-09-16T13:23:18.828Z,99.90
2023-09-16T13:25:45.545Z,99.90
2023-09-16T13:28:14.643Z,99.90
2023-09-16T13:30:50.593Z,99.90
2023-09-16T13:33:17.773Z,99.90
2023-09-16T13:35:45.560Z,99.90
2023-09-16T13:38:13.754Z,99.90
2023-09-16T13:40:47.796Z,99.90
2023-09-16T13:43:14.488Z,99.90
2023-09-16T13:45:41.125Z,99.90
2023-09-16T13:48:10.605Z,99.90
2023-09-16T13:50:43.462Z,99.90
2023-09-16T13:53:16.929Z,99.90
2023-09-16T13:55:45.006Z,99.90
2023-09-16T13:58:12.054Z,99.90
2023-09-16T14:00:39.047Z,99.90
2023-09-16T14:03:06.822Z,99.90
2023-09-16T14:05:34.298Z,99.90
2023-09-16T14:08:01.008Z,99.90
2023-09-16T14:10:29.842Z,99.90
2023-09-16T14:12:59.378Z,99.90
2023-09-16T14:15:28.249Z,99.90
2023-09-16T14:17:56.103Z,99.90
2023-09-16T14:20:22.998Z,99.90
2023-09-16T14:22:49.714Z,99.90
2023-09-16T14:25:16.512Z,99.90
2023-09-16T14:27:43.552Z,99.90
2023-09-16T14:30:11.342Z,99.90
2023-09-16T14:32:38.160Z,99.90
2023-09-16T14:35:05.359Z,99.90
2023-09-16T14:37:32.240Z,99.90
2023-09-16T14:40:00.350Z,99.90
2023-09-16T14:42:27.114Z,99.90
2023-09-16T14:44:53.825Z,99.90
2023-09-16T14:47:20.571Z,99.90
2023-09-16T14:49:47.411Z,99.90
2023-09-16T14:52:14.354Z,99.90
2023-09-16T14:54:41.167Z,99.90
2023-09-16T14:57:07.887Z,99.90
2023-09-16T14:59:34.580Z,99.90
2023-09-16T15:02:02.260Z,99.90
2023-09-16T15:04:29.068Z,99.90
2023-09-16T15:06:55.899Z,99.90
2023-09-16T15:09:22.593Z,99.90
2023-09-16T15:11:49.535Z,99.90
2023-09-16T15:14:16.295Z,99.90
2023-09-16T15:16:43.068Z,99.90
2023-09-16T15:19:09.939Z,99.90
2023-09-16T15:21:36.663Z,99.90
2023-09-16T15:24:03.696Z,99.90
2023-09-16T15:26:31.278Z,99.90
2023-09-16T15:28:58.494Z,99.90
2023-09-16T15:31:25.609Z,99.90
2023-09-16T15:33:56.657Z,99.90
2023-09-16T15:36:23.441Z,99.90
2023-09-16T15:38:51.495Z,99.90
2023-09-16T15:41:18.205Z,99.90
2023-09-16T15:43:44.972Z,99.90
2023-09-16T15:46:13.229Z,99.90
2023-09-16T15:48:40.001Z,99.90
2023-09-16T15:51:07.029Z,99.90
2023-09-16T15:53:33.803Z,99.90
2023-09-16T15:56:00.458Z,99.90
2023-09-16T15:58:27.162Z,99.90
2023-09-16T16:00:55.948Z,99.90
2023-09-16T16:03:25.939Z,99.90
2023-09-16T16:05:57.188Z,99.90
2023-09-16T16:08:24.384Z,99.90
2023-09-16T16:10:51.445Z,99.90
2023-09-16T16:13:20.162Z,99.90
2023-09-16T16:15:50.507Z,99.90
2023-09-16T16:18:17.430Z,99.90
2023-09-16T16:20:44.802Z,99.90
2023-09-16T16:23:11.486Z,99.90
2023-09-16T16:25:38.182Z,99.90
2023-09-16T16:28:05.466Z,99.90
2023-09-16T16:30:32.413Z,99.90
2023-09-16T16:32:59.237Z,99.90
2023-09-16T16:35:25.974Z,99.90
2023-09-16T16:37:52.658Z,99.90
2023-09-16T16:40:19.485Z,99.90
2023-09-16T16:42:46.944Z,99.90
2023-09-16T16:45:14.005Z,99.90
2023-09-16T16:47:41.786Z,99.90
2023-09-16T16:50:09.761Z,99.90
2023-09-16T16:52:38.250Z,99.90
2023-09-16T16:55:06.358Z,99.90
2023-09-16T16:57:33.416Z,99.90
2023-09-16T17:00:01.764Z,99.90
2023-09-16T17:02:30.498Z,99.90
2023-09-16T17:04:58.205Z,99.90
2023-09-16T17:07:26.277Z,99.90
2023-09-16T17:09:57.146Z,99.90
2023-09-16T17:12:24.347Z,99.90
2023-09-16T17:14:51.255Z,99.90
2023-09-16T17:17:19.825Z,99.90
2023-09-16T17:19:46.801Z,99.90
2023-09-16T17:22:13.560Z,99.90
2023-09-16T17:24:40.313Z,99.90
2023-09-16T17:27:07.012Z,99.90
2023-09-16T17:29:33.727Z,99.90
2023-09-16T17:32:00.585Z,99.90
2023-09-16T17:34:27.422Z,99.90
2023-09-16T17:36:55.423Z,99.90
2023-09-16T17:39:22.971Z,99.90
2023-09-16T17:41:50.104Z,99.90
2023-09-16T17:44:18.086Z,99.90
2023-09-16T17:46:46.406Z,99.90
2023-09-16T17:49:16.848Z,99.90
2023-09-16T17:51:44.148Z,99.90
2023-09-16T17:54:11.419Z,99.90
2023-09-16T17:56:38.122Z,99.90
2023-09-16T17:59:07.029Z,99.90
2023-09-16T18:01:34.247Z,99.90
2023-09-16T18:04:01.089Z,99.90
2023-09-16T18:06:27.949Z,99.90
2023-09-16T18:08:54.675Z,99.90
2023-09-16T18:11:21.661Z,99.90
2023-09-16T18:13:48.718Z,99.90
2023-09-16T18:16:15.631Z,99.90
2023-09-16T18:18:42.640Z,99.90
2023-09-16T18:21:10.990Z,99.90
2023-09-16T18:23:37.759Z,99.90
2023-09-16T18:26:05.457Z,99.90
2023-09-16T18:28:32.469Z,99.90
2023-09-16T18:30:59.484Z,99.90
2023-09-16T18:33:28.510Z,99.90
2023-09-16T18:35:55.372Z,99.90
2023-09-16T18:38:22.753Z,99.90
2023-09-16T18:40:50.896Z,99.90
2023-09-16T18:43:18.419Z,99.90
2023-09-16T18:45:45.983Z,99.90
2023-09-16T18:48:13.737Z,99.90
2023-09-16T18:50:42.996Z,99.90
2023-09-16T18:53:10.794Z,99.90
2023-09-16T18:55:37.614Z,99.90
2023-09-16T18:58:04.670Z,99.90
2023-09-16T19:00:31.386Z,99.90
2023-09-16T19:02:58.330Z,99.90
2023-09-16T19:05:25.113Z,99.90
2023-09-16T19:07:52.348Z,99.90
2023-09-16T19:10:19.120Z,99.90
2023-09-16T19:12:46.185Z,99.90
2023-09-16T19:15:13.819Z,99.90
2023-09-16T19:17:40.551Z,99.90
2023-09-16T19:20:09.172Z,99.90
2023-09-16T19:22:36.207Z,99.90
2023-09-16T19:25:03.645Z,99.90
2023-09-16T19:27:30.469Z,99.90
2023-09-16T19:29:57.170Z,99.90
2023-09-16T19:32:24.549Z,99.90
2023-09-16T19:34:52.593Z,99.90
2023-09-16T19:37:19.408Z,99.90
2023-09-16T19:39:46.371Z,99.90
2023-09-16T19:42:13.188Z,99.90
2023-09-16T19:44:40.614Z,99.90
2023-09-16T19:47:07.423Z,99.90
2023-09-16T19:49:34.675Z,99.90
2023-09-16T19:52:01.668Z,99.90
2023-09-16T19:54:28.336Z,99.90
2023-09-16T19:57:03.745Z,99.90
2023-09-16T19:59:31.791Z,99.90
2023-09-16T20:02:00.022Z,99.90
2023-09-16T20:04:28.063Z,99.90
2023-09-16T20:06:56.518Z,99.90
2023-09-16T20:09:23.233Z,99.90
2023-09-16T20:11:49.988Z,99.90
2023-09-16T20:14:16.651Z,99.90
2023-09-16T20:16:43.477Z,99.90
2023-09-16T20:19:10.327Z,99.90
2023-09-16T20:21:37.101Z,99.90
2023-09-16T20:24:04.043Z,99.90
2023-09-16T20:26:30.933Z,99.90
2023-09-16T20:28:58.580Z,99.90
2023-09-16T20:31:25.393Z,99.90
2023-09-16T20:34:08.375Z,99.90
2023-09-16T20:36:37.379Z,99.90
2023-09-16T20:39:04.502Z,99.90
2023-09-16T20:41:31.655Z,99.90
2023-09-16T20:43:58.401Z,99.90
2023-09-16T20:48:51.963Z,99.90
2023-09-16T20:51:18.767Z,99.90
2023-09-16T20:53:46.554Z,99.90
2023-09-16T20:56:15.983Z,99.90
2023-09-16T20:58:43.928Z,99.90
2023-09-16T21:01:11.042Z,99.90
2023-09-16T21:03:38.180Z,99.90
2023-09-16T21:06:05.055Z,99.90
2023-09-16T21:08:31.796Z,99.90
2023-09-16T21:10:58.604Z,99.90
2023-09-16T21:13:25.415Z,99.90
2023-09-16T21:15:52.600Z,99.90
2023-09-16T21:18:19.570Z,99.90
2023-09-16T21:20:46.241Z,99.90
2023-09-16T21:23:12.985Z,99.90
2023-09-16T21:25:40.659Z,99.90
2023-09-16T21:28:07.822Z,99.90
2023-09-16T21:30:34.969Z,99.90
2023-09-16T21:33:02.353Z,99.90
2023-09-16T21:35:30.120Z,99.90
2023-09-16T21:37:57.068Z,99.90
2023-09-16T21:40:26.058Z,99.90
2023-09-16T21:42:53.879Z,99.90
2023-09-16T21:45:21.035Z,99.90
2023-09-16T21:47:47.998Z,99.90
2023-09-16T21:50:15.097Z,99.90
2023-09-16T21:52:41.865Z,99.90
2023-09-16T21:55:08.838Z,99.90
2023-09-16T21:57:35.572Z,99.90
2023-09-16T22:00:02.464Z,99.90
2023-09-16T22:02:29.226Z,99.90
2023-09-16T22:04:55.999Z,99.90
2023-09-16T22:07:22.779Z,99.90
2023-09-16T22:09:49.457Z,99.90
2023-09-16T22:12:16.176Z,99.90
2023-09-16T22:14:42.881Z,99.90
2023-09-16T22:17:09.800Z,99.90
2023-09-16T22:19:36.563Z,99.90
2023-09-16T22:22:03.733Z,99.90
2023-09-16T22:24:30.440Z,99.90
2023-09-16T22:26:58.279Z,99.90
2023-09-16T22:29:25.049Z,99.90
2023-09-16T22:31:51.771Z,99.90
2023-09-16T22:34:18.644Z,99.90
2023-09-16T22:36:45.350Z,99.90
2023-09-16T22:39:12.054Z,99.90
2023-09-16T22:41:38.767Z,99.90
2023-09-16T22:44:05.612Z,99.90
2023-09-16T22:46:35.030Z,99.90
2023-09-16T22:49:03.384Z,99.90
2023-09-16T22:51:31.163Z,99.90
2023-09-16T22:53:57.885Z,99.90
2023-09-16T22:56:24.573Z,99.90
2023-09-16T22:58:51.804Z,99.90
2023-09-16T23:01:18.986Z,99.90
2023-09-16T23:03:45.822Z,99.90
2023-09-16T23:06:12.626Z,99.90
2023-09-16T23:08:39.324Z,99.90
2023-09-16T23:11:05.973Z,99.90
2023-09-16T23:13:32.687Z,99.90
2023-09-16T23:15:59.512Z,99.90
2023-09-16T23:18:27.042Z,99.90
2023-09-16T23:20:58.628Z,99.90
2023-09-16T23:23:26.478Z,99.90
2023-09-16T23:25:55.290Z,99.90
2023-09-16T23:28:22.202Z,99.90
2023-09-16T23:30:49.047Z,99.90
2023-09-16T23:33:17.277Z,99.90
2023-09-16T23:35:44.043Z,99.90
2023-09-16T23:38:13.124Z,99.90
2023-09-16T23:40:42.029Z,99.90
2023-09-16T23:43:08.839Z,99.90
2023-09-16T23:45:36.857Z,99.90
2023-09-16T23:48:04.546Z,99.90
2023-09-16T23:50:31.327Z,99.90
2023-09-16T23:52:58.134Z,99.90
2023-09-16T23:55:24.992Z,99.90
2023-09-16T23:57:51.822Z,99.90
